sensor_id;sensor_type;location;lat;lon;timestamp;temperature;humidity
9403;DHT22;4741;49.834;10.740;2022-07-12T00:01:51;11.60;99.90
9403;DHT22;4741;49.834;10.740;2022-07-12T00:04:18;11.60;99.90
9403;DHT22;4741;49.834;10.740;2022-07-12T00:06:45;11.50;99.90
9403;DHT22;4741;49.834;10.740;2022-07-12T00:09:12;11.40;99.90
9403;DHT22;4741;49.834;10.740;2022-07-12T00:11:39;13.20;99.90
9403;DHT22;4741;49.834;10.740;2022-07-12T00:14:06;11.20;99.90
9403;DHT22;4741;49.834;10.740;2022-07-12T00:16:33;13.00;99.90
9403;DHT22;4741;49.834;10.740;2022-07-12T00:19:00;10.70;99.90
9403;DHT22;4741;49.834;10.740;2022-07-12T00:21:26;10.50;99.90
9403;DHT22;4741;49.834;10.740;2022-07-12T00:23:53;11.60;99.90
9403;DHT22;4741;49.834;10.740;2022-07-12T00:26:20;10.60;99.90
9403;DHT22;4741;49.834;10.740;2022-07-12T00:28:46;11.00;99.90
9403;DHT22;4741;49.834;10.740;2022-07-12T00:31:14;11.10;99.90
9403;DHT22;4741;49.834;10.740;2022-07-12T00:33:41;11.10;99.90
9403;DHT22;4741;49.834;10.740;2022-07-12T00:36:07;11.00;99.90
9403;DHT22;4741;49.834;10.740;2022-07-12T00:38:34;11.60;99.90
9403;DHT22;4741;49.834;10.740;2022-07-12T00:41:01;10.50;99.90
9403;DHT22;4741;49.834;10.740;2022-07-12T00:43:28;11.10;99.90
9403;DHT22;4741;49.834;10.740;2022-07-12T00:45:54;11.10;99.90
9403;DHT22;4741;49.834;10.740;2022-07-12T00:48:21;10.00;99.90
9403;DHT22;4741;49.834;10.740;2022-07-12T00:50:48;10.90;99.90
9403;DHT22;4741;49.834;10.740;2022-07-12T00:53:14;10.20;99.90
9403;DHT22;4741;49.834;10.740;2022-07-12T00:55:43;10.00;99.90
9403;DHT22;4741;49.834;10.740;2022-07-12T00:58:09;10.50;99.90
9403;DHT22;4741;49.834;10.740;2022-07-12T01:00:36;10.00;99.90
9403;DHT22;4741;49.834;10.740;2022-07-12T01:03:03;10.50;99.90
9403;DHT22;4741;49.834;10.740;2022-07-12T01:05:30;10.10;99.90
9403;DHT22;4741;49.834;10.740;2022-07-12T01:07:57;10.30;99.90
9403;DHT22;4741;49.834;10.740;2022-07-12T01:10:24;10.90;99.90
9403;DHT22;4741;49.834;10.740;2022-07-12T01:12:51;10.40;99.90
9403;DHT22;4741;49.834;10.740;2022-07-12T01:15:19;10.80;99.90
9403;DHT22;4741;49.834;10.740;2022-07-12T01:17:46;10.40;99.90
9403;DHT22;4741;49.834;10.740;2022-07-12T01:20:19;10.50;99.90
9403;DHT22;4741;49.834;10.740;2022-07-12T01:22:50;10.20;99.90
9403;DHT22;4741;49.834;10.740;2022-07-12T01:25:18;11.00;99.90
9403;DHT22;4741;49.834;10.740;2022-07-12T01:30:33;11.00;99.90
9403;DHT22;4741;49.834;10.740;2022-07-12T01:33:00;10.90;99.90
9403;DHT22;4741;49.834;10.740;2022-07-12T01:35:27;9.90;99.90
9403;DHT22;4741;49.834;10.740;2022-07-12T01:37:54;11.00;99.90
9403;DHT22;4741;49.834;10.740;2022-07-12T01:40:21;11.60;99.90
9403;DHT22;4741;49.834;10.740;2022-07-12T01:42:48;10.50;99.90
9403;DHT22;4741;49.834;10.740;2022-07-12T01:45:16;10.30;99.90
9403;DHT22;4741;49.834;10.740;2022-07-12T01:47:43;10.00;99.90
9403;DHT22;4741;49.834;10.740;2022-07-12T01:50:10;10.40;99.90
9403;DHT22;4741;49.834;10.740;2022-07-12T01:52:40;10.30;99.90
9403;DHT22;4741;49.834;10.740;2022-07-12T01:55:08;10.80;99.90
9403;DHT22;4741;49.834;10.740;2022-07-12T01:57:35;10.80;99.90
9403;DHT22;4741;49.834;10.740;2022-07-12T02:00:03;12.60;99.90
9403;DHT22;4741;49.834;10.740;2022-07-12T02:02:30;10.70;99.90
9403;DHT22;4741;49.834;10.740;2022-07-12T02:05:01;10.60;99.90
9403;DHT22;4741;49.834;10.740;2022-07-12T02:07:28;10.90;99.90
9403;DHT22;4741;49.834;10.740;2022-07-12T02:09:55;10.30;99.90
9403;DHT22;4741;49.834;10.740;2022-07-12T02:12:22;10.20;99.90
9403;DHT22;4741;49.834;10.740;2022-07-12T02:14:49;10.40;99.90
9403;DHT22;4741;49.834;10.740;2022-07-12T02:17:16;10.60;99.90
9403;DHT22;4741;49.834;10.740;2022-07-12T02:19:43;11.80;99.90
9403;DHT22;4741;49.834;10.740;2022-07-12T02:22:10;10.40;99.90
9403;DHT22;4741;49.834;10.740;2022-07-12T02:24:36;10.30;99.90
9403;DHT22;4741;49.834;10.740;2022-07-12T02:27:03;10.50;99.90
9403;DHT22;4741;49.834;10.740;2022-07-12T02:29:30;10.60;99.90
9403;DHT22;4741;49.834;10.740;2022-07-12T02:31:57;10.10;99.90
9403;DHT22;4741;49.834;10.740;2022-07-12T02:34:24;10.40;99.90
9403;DHT22;4741;49.834;10.740;2022-07-12T02:36:50;10.50;99.90
9403;DHT22;4741;49.834;10.740;2022-07-12T02:39:17;11.70;99.90
9403;DHT22;4741;49.834;10.740;2022-07-12T02:44:11;10.40;99.90
9403;DHT22;4741;49.834;10.740;2022-07-12T02:46:37;9.60;99.90
9403;DHT22;4741;49.834;10.740;2022-07-12T02:49:04;9.90;99.90
9403;DHT22;4741;49.834;10.740;2022-07-12T02:51:31;11.00;99.90
9403;DHT22;4741;49.834;10.740;2022-07-12T02:53:58;9.40;99.90
9403;DHT22;4741;49.834;10.740;2022-07-12T02:56:26;10.10;99.90
9403;DHT22;4741;49.834;10.740;2022-07-12T02:58:53;9.20;99.90
9403;DHT22;4741;49.834;10.740;2022-07-12T03:01:19;9.40;99.90
9403;DHT22;4741;49.834;10.740;2022-07-12T03:03:46;10.00;99.90
9403;DHT22;4741;49.834;10.740;2022-07-12T03:06:13;9.60;99.90
9403;DHT22;4741;49.834;10.740;2022-07-12T03:08:39;9.80;99.90
9403;DHT22;4741;49.834;10.740;2022-07-12T03:11:06;9.90;99.90
9403;DHT22;4741;49.834;10.740;2022-07-12T03:13:33;9.60;99.90
9403;DHT22;4741;49.834;10.740;2022-07-12T03:15:59;9.70;99.90
9403;DHT22;4741;49.834;10.740;2022-07-12T03:18:26;9.50;99.90
9403;DHT22;4741;49.834;10.740;2022-07-12T03:20:53;9.70;99.90
9403;DHT22;4741;49.834;10.740;2022-07-12T03:23:20;10.00;99.90
9403;DHT22;4741;49.834;10.740;2022-07-12T03:25:46;9.90;99.90
9403;DHT22;4741;49.834;10.740;2022-07-12T03:28:13;9.60;99.90
9403;DHT22;4741;49.834;10.740;2022-07-12T03:30:40;10.00;99.90
9403;DHT22;4741;49.834;10.740;2022-07-12T03:33:07;9.70;99.90
9403;DHT22;4741;49.834;10.740;2022-07-12T03:35:34;9.40;99.90
9403;DHT22;4741;49.834;10.740;2022-07-12T03:38:02;9.70;99.90
9403;DHT22;4741;49.834;10.740;2022-07-12T03:40:30;9.40;99.90
9403;DHT22;4741;49.834;10.740;2022-07-12T03:42:57;10.10;99.90
9403;DHT22;4741;49.834;10.740;2022-07-12T03:45:25;11.30;99.90
9403;DHT22;4741;49.834;10.740;2022-07-12T03:47:51;9.70;99.90
9403;DHT22;4741;49.834;10.740;2022-07-12T03:50:18;9.90;99.90
9403;DHT22;4741;49.834;10.740;2022-07-12T03:52:45;9.20;99.90
9403;DHT22;4741;49.834;10.740;2022-07-12T03:55:12;9.30;99.90
9403;DHT22;4741;49.834;10.740;2022-07-12T03:57:39;9.70;99.90
9403;DHT22;4741;49.834;10.740;2022-07-12T04:00:07;9.80;99.90
9403;DHT22;4741;49.834;10.740;2022-07-12T04:02:39;10.20;99.90
9403;DHT22;4741;49.834;10.740;2022-07-12T04:05:06;10.00;99.90
9403;DHT22;4741;49.834;10.740;2022-07-12T04:07:33;10.30;99.90
9403;DHT22;4741;49.834;10.740;2022-07-12T04:10:00;9.90;99.90
9403;DHT22;4741;49.834;10.740;2022-07-12T04:12:27;9.50;99.90
9403;DHT22;4741;49.834;10.740;2022-07-12T04:14:54;11.00;99.90
9403;DHT22;4741;49.834;10.740;2022-07-12T04:17:20;12.00;99.90
9403;DHT22;4741;49.834;10.740;2022-07-12T04:19:47;9.60;99.90
9403;DHT22;4741;49.834;10.740;2022-07-12T04:22:14;9.40;99.90
9403;DHT22;4741;49.834;10.740;2022-07-12T04:24:41;10.00;99.90
9403;DHT22;4741;49.834;10.740;2022-07-12T04:27:07;9.40;99.90
9403;DHT22;4741;49.834;10.740;2022-07-12T04:29:34;10.00;99.90
9403;DHT22;4741;49.834;10.740;2022-07-12T04:32:01;10.10;99.90
9403;DHT22;4741;49.834;10.740;2022-07-12T04:34:27;12.60;99.90
9403;DHT22;4741;49.834;10.740;2022-07-12T04:36:54;9.70;99.90
9403;DHT22;4741;49.834;10.740;2022-07-12T04:39:21;9.90;99.90
9403;DHT22;4741;49.834;10.740;2022-07-12T04:41:48;9.80;99.90
9403;DHT22;4741;49.834;10.740;2022-07-12T04:44:14;11.50;99.90
9403;DHT22;4741;49.834;10.740;2022-07-12T04:46:41;12.10;99.90
9403;DHT22;4741;49.834;10.740;2022-07-12T04:49:08;10.40;99.90
9403;DHT22;4741;49.834;10.740;2022-07-12T04:51:35;10.00;99.90
9403;DHT22;4741;49.834;10.740;2022-07-12T04:54:01;10.30;99.90
9403;DHT22;4741;49.834;10.740;2022-07-12T04:56:28;11.30;99.90
9403;DHT22;4741;49.834;10.740;2022-07-12T04:58:55;10.20;99.90
9403;DHT22;4741;49.834;10.740;2022-07-12T05:03:53;10.80;99.90
9403;DHT22;4741;49.834;10.740;2022-07-12T06:17:48;14.40;99.90
9403;DHT22;4741;49.834;10.740;2022-07-12T06:20:15;14.50;99.90
9403;DHT22;4741;49.834;10.740;2022-07-12T06:22:42;14.50;99.90
9403;DHT22;4741;49.834;10.740;2022-07-12T06:35:18;16.00;99.90
9403;DHT22;4741;49.834;10.740;2022-07-12T06:40:12;16.90;99.90
9403;DHT22;4741;49.834;10.740;2022-07-12T06:42:41;16.80;99.90
9403;DHT22;4741;49.834;10.740;2022-07-12T06:45:10;16.80;99.90
9403;DHT22;4741;49.834;10.740;2022-07-12T07:24:25;18.30;99.90
9403;DHT22;4741;49.834;10.740;2022-07-12T07:26:53;18.30;99.90
9403;DHT22;4741;49.834;10.740;2022-07-12T07:29:23;18.60;99.90
9403;DHT22;4741;49.834;10.740;2022-07-12T07:32:09;18.20;99.90
9403;DHT22;4741;49.834;10.740;2022-07-12T07:34:36;17.50;99.90
9403;DHT22;4741;49.834;10.740;2022-07-12T07:39:29;18.50;99.90
9403;DHT22;4741;49.834;10.740;2022-07-12T07:41:56;18.60;99.90
9403;DHT22;4741;49.834;10.740;2022-07-12T07:44:23;18.30;99.90
9403;DHT22;4741;49.834;10.740;2022-07-12T07:46:58;18.10;99.90
9403;DHT22;4741;49.834;10.740;2022-07-12T07:49:25;18.00;99.90
9403;DHT22;4741;49.834;10.740;2022-07-12T07:51:52;17.90;99.90
9403;DHT22;4741;49.834;10.740;2022-07-12T07:54:19;19.30;99.90
9403;DHT22;4741;49.834;10.740;2022-07-12T07:56:46;18.00;99.90
9403;DHT22;4741;49.834;10.740;2022-07-12T07:59:13;18.90;99.90
9403;DHT22;4741;49.834;10.740;2022-07-12T08:01:40;18.60;99.90
9403;DHT22;4741;49.834;10.740;2022-07-12T08:06:39;20.10;99.90
9403;DHT22;4741;49.834;10.740;2022-07-12T08:09:06;20.50;99.90
9403;DHT22;4741;49.834;10.740;2022-07-12T08:11:39;20.90;99.90
9403;DHT22;4741;49.834;10.740;2022-07-12T08:16:33;21.00;99.90
9403;DHT22;4741;49.834;10.740;2022-07-12T08:21:27;21.40;99.90
9403;DHT22;4741;49.834;10.740;2022-07-12T08:23:54;21.70;99.90
9403;DHT22;4741;49.834;10.740;2022-07-12T08:26:22;22.10;99.90
9403;DHT22;4741;49.834;10.740;2022-07-12T08:28:49;21.60;99.90
9403;DHT22;4741;49.834;10.740;2022-07-12T08:31:15;21.80;99.90
9403;DHT22;4741;49.834;10.740;2022-07-12T08:33:42;21.20;99.90
9403;DHT22;4741;49.834;10.740;2022-07-12T08:36:09;21.70;99.90
9403;DHT22;4741;49.834;10.740;2022-07-12T08:38:36;21.30;99.90
9403;DHT22;4741;49.834;10.740;2022-07-12T08:41:04;22.20;99.90
9403;DHT22;4741;49.834;10.740;2022-07-12T08:49:07;20.40;99.90
9403;DHT22;4741;49.834;10.740;2022-07-12T08:51:34;21.40;99.90
9403;DHT22;4741;49.834;10.740;2022-07-12T08:59:20;19.90;99.90
9403;DHT22;4741;49.834;10.740;2022-07-12T09:01:53;20.80;99.90
9403;DHT22;4741;49.834;10.740;2022-07-12T09:09:27;22.10;99.90
9403;DHT22;4741;49.834;10.740;2022-07-12T09:11:54;22.70;99.90
9403;DHT22;4741;49.834;10.740;2022-07-12T09:14:21;22.50;99.90
9403;DHT22;4741;49.834;10.740;2022-07-12T09:19:54;22.80;99.90
9403;DHT22;4741;49.834;10.740;2022-07-12T09:22:24;21.50;99.90
9403;DHT22;4741;49.834;10.740;2022-07-12T09:24:51;22.70;99.90
9403;DHT22;4741;49.834;10.740;2022-07-12T09:27:24;22.90;99.90
9403;DHT22;4741;49.834;10.740;2022-07-12T09:29:52;22.30;99.90
9403;DHT22;4741;49.834;10.740;2022-07-12T09:32:25;21.10;99.90
9403;DHT22;4741;49.834;10.740;2022-07-12T09:35:11;22.80;99.90
9403;DHT22;4741;49.834;10.740;2022-07-12T09:38:07;22.70;99.90
9403;DHT22;4741;49.834;10.740;2022-07-12T09:40:33;23.40;99.90
9403;DHT22;4741;49.834;10.740;2022-07-12T09:43:00;22.70;99.90
9403;DHT22;4741;49.834;10.740;2022-07-12T09:47:54;21.00;99.90
9403;DHT22;4741;49.834;10.740;2022-07-12T09:50:22;21.50;99.90
9403;DHT22;4741;49.834;10.740;2022-07-12T09:52:49;21.80;99.90
9403;DHT22;4741;49.834;10.740;2022-07-12T09:57:46;21.20;99.90
9403;DHT22;4741;49.834;10.740;2022-07-12T10:00:13;20.70;99.90
9403;DHT22;4741;49.834;10.740;2022-07-12T10:02:40;21.60;99.90
9403;DHT22;4741;49.834;10.740;2022-07-12T10:05:07;21.50;99.90
9403;DHT22;4741;49.834;10.740;2022-07-12T10:07:36;22.10;99.90
9403;DHT22;4741;49.834;10.740;2022-07-12T10:10:09;22.70;99.90
9403;DHT22;4741;49.834;10.740;2022-07-12T10:13:24;23.10;99.90
9403;DHT22;4741;49.834;10.740;2022-07-12T10:15:57;23.40;99.90
9403;DHT22;4741;49.834;10.740;2022-07-12T10:18:34;22.60;99.90
9403;DHT22;4741;49.834;10.740;2022-07-12T10:22:04;23.90;99.90
9403;DHT22;4741;49.834;10.740;2022-07-12T10:27:00;24.20;99.90
9403;DHT22;4741;49.834;10.740;2022-07-12T10:29:26;24.30;99.90
9403;DHT22;4741;49.834;10.740;2022-07-12T10:31:59;25.00;99.90
9403;DHT22;4741;49.834;10.740;2022-07-12T10:34:26;25.10;99.90
9403;DHT22;4741;49.834;10.740;2022-07-12T10:42:28;24.80;99.90
9403;DHT22;4741;49.834;10.740;2022-07-12T10:44:55;25.20;99.90
9403;DHT22;4741;49.834;10.740;2022-07-12T10:47:52;25.00;99.90
9403;DHT22;4741;49.834;10.740;2022-07-12T11:23:04;27.90;99.90
9403;DHT22;4741;49.834;10.740;2022-07-12T11:25:46;27.40;99.90
9403;DHT22;4741;49.834;10.740;2022-07-12T11:28:13;27.20;99.90
9403;DHT22;4741;49.834;10.740;2022-07-12T11:30:53;27.60;99.90
9403;DHT22;4741;49.834;10.740;2022-07-12T11:34:21;27.60;99.90
9403;DHT22;4741;49.834;10.740;2022-07-12T11:44:50;29.20;99.90
9403;DHT22;4741;49.834;10.740;2022-07-12T11:47:15;29.20;98.50
9403;DHT22;4741;49.834;10.740;2022-07-12T11:49:43;29.20;98.30
9403;DHT22;4741;49.834;10.740;2022-07-12T11:52:17;29.50;99.90
9403;DHT22;4741;49.834;10.740;2022-07-12T11:54:45;29.70;98.00
9403;DHT22;4741;49.834;10.740;2022-07-12T11:57:12;29.90;98.70
9403;DHT22;4741;49.834;10.740;2022-07-12T12:07:16;30.40;95.50
9403;DHT22;4741;49.834;10.740;2022-07-12T12:14:51;30.60;93.70
9403;DHT22;4741;49.834;10.740;2022-07-12T12:19:45;31.40;93.00
9403;DHT22;4741;49.834;10.740;2022-07-12T12:22:30;32.40;94.00
9403;DHT22;4741;49.834;10.740;2022-07-12T12:25:02;29.90;92.80
9403;DHT22;4741;49.834;10.740;2022-07-12T12:27:29;30.60;92.80
9403;DHT22;4741;49.834;10.740;2022-07-12T12:30:17;31.70;91.70
9403;DHT22;4741;49.834;10.740;2022-07-12T12:35:19;31.90;89.50
9403;DHT22;4741;49.834;10.740;2022-07-12T12:37:50;31.70;90.00
9403;DHT22;4741;49.834;10.740;2022-07-12T12:40:21;31.70;89.80
9403;DHT22;4741;49.834;10.740;2022-07-12T12:42:48;31.30;91.20
9403;DHT22;4741;49.834;10.740;2022-07-12T12:45:18;32.00;92.50
9403;DHT22;4741;49.834;10.740;2022-07-12T12:47:53;29.90;98.50
9403;DHT22;4741;49.834;10.740;2022-07-12T13:00:15;31.00;96.30
9403;DHT22;4741;49.834;10.740;2022-07-12T13:05:09;32.70;84.10
9403;DHT22;4741;49.834;10.740;2022-07-12T13:07:36;33.10;81.90
9403;DHT22;4741;49.834;10.740;2022-07-12T13:10:03;32.80;84.50
9403;DHT22;4741;49.834;10.740;2022-07-12T13:12:30;31.40;82.60
9403;DHT22;4741;49.834;10.740;2022-07-12T13:14:57;30.90;84.30
9403;DHT22;4741;49.834;10.740;2022-07-12T13:17:24;31.40;89.50
9403;DHT22;4741;49.834;10.740;2022-07-12T13:19:53;30.60;85.80
9403;DHT22;4741;49.834;10.740;2022-07-12T13:22:21;30.80;86.00
9403;DHT22;4741;49.834;10.740;2022-07-12T13:24:48;31.50;84.60
9403;DHT22;4741;49.834;10.740;2022-07-12T13:27:15;33.10;81.60
9403;DHT22;4741;49.834;10.740;2022-07-12T13:29:42;33.20;80.70
9403;DHT22;4741;49.834;10.740;2022-07-12T13:32:08;32.90;78.60
9403;DHT22;4741;49.834;10.740;2022-07-12T13:34:35;32.80;82.20
9403;DHT22;4741;49.834;10.740;2022-07-12T13:37:03;32.90;80.90
9403;DHT22;4741;49.834;10.740;2022-07-12T13:42:19;33.60;77.90
9403;DHT22;4741;49.834;10.740;2022-07-12T13:45:00;33.10;78.60
9403;DHT22;4741;49.834;10.740;2022-07-12T13:47:27;33.00;76.40
9403;DHT22;4741;49.834;10.740;2022-07-12T13:49:59;32.60;82.30
9403;DHT22;4741;49.834;10.740;2022-07-12T13:52:26;32.70;76.40
9403;DHT22;4741;49.834;10.740;2022-07-12T13:54:52;33.10;75.70
9403;DHT22;4741;49.834;10.740;2022-07-12T13:57:19;32.70;76.50
9403;DHT22;4741;49.834;10.740;2022-07-12T13:59:46;32.20;75.20
9403;DHT22;4741;49.834;10.740;2022-07-12T14:02:13;32.00;75.60
9403;DHT22;4741;49.834;10.740;2022-07-12T14:04:39;32.70;75.40
9403;DHT22;4741;49.834;10.740;2022-07-12T14:07:06;33.00;82.80
9403;DHT22;4741;49.834;10.740;2022-07-12T14:09:33;33.50;73.40
9403;DHT22;4741;49.834;10.740;2022-07-12T14:12:02;33.50;73.80
9403;DHT22;4741;49.834;10.740;2022-07-12T14:14:38;33.10;69.80
9403;DHT22;4741;49.834;10.740;2022-07-12T14:17:23;32.90;71.10
9403;DHT22;4741;49.834;10.740;2022-07-12T14:19:50;34.20;70.80
9403;DHT22;4741;49.834;10.740;2022-07-12T14:22:18;34.80;70.20
9403;DHT22;4741;49.834;10.740;2022-07-12T14:24:47;34.40;73.00
9403;DHT22;4741;49.834;10.740;2022-07-12T14:27:14;32.90;75.50
9403;DHT22;4741;49.834;10.740;2022-07-12T14:29:42;33.30;71.20
9403;DHT22;4741;49.834;10.740;2022-07-12T14:32:09;34.20;68.80
9403;DHT22;4741;49.834;10.740;2022-07-12T14:34:39;34.80;68.10
9403;DHT22;4741;49.834;10.740;2022-07-12T14:37:06;35.50;90.20
9403;DHT22;4741;49.834;10.740;2022-07-12T14:39:33;34.20;90.90
9403;DHT22;4741;49.834;10.740;2022-07-12T14:42:02;34.70;73.80
9403;DHT22;4741;49.834;10.740;2022-07-12T14:44:43;34.90;65.40
9403;DHT22;4741;49.834;10.740;2022-07-12T14:47:10;35.50;65.10
9403;DHT22;4741;49.834;10.740;2022-07-12T14:49:38;36.00;63.80
9403;DHT22;4741;49.834;10.740;2022-07-12T14:52:05;35.30;64.50
9403;DHT22;4741;49.834;10.740;2022-07-12T14:54:33;35.10;63.60
9403;DHT22;4741;49.834;10.740;2022-07-12T14:57:00;35.60;62.20
9403;DHT22;4741;49.834;10.740;2022-07-12T14:59:27;35.40;63.30
9403;DHT22;4741;49.834;10.740;2022-07-12T15:04:22;33.40;62.60
9403;DHT22;4741;49.834;10.740;2022-07-12T15:09:16;33.60;80.60
9403;DHT22;4741;49.834;10.740;2022-07-12T15:11:43;34.60;69.80
9403;DHT22;4741;49.834;10.740;2022-07-12T15:14:13;34.80;65.90
9403;DHT22;4741;49.834;10.740;2022-07-12T15:16:40;35.50;63.10
9403;DHT22;4741;49.834;10.740;2022-07-12T15:19:07;34.90;63.20
9403;DHT22;4741;49.834;10.740;2022-07-12T15:21:34;34.20;63.50
9403;DHT22;4741;49.834;10.740;2022-07-12T15:24:02;34.60;62.50
9403;DHT22;4741;49.834;10.740;2022-07-12T15:26:31;34.20;64.00
9403;DHT22;4741;49.834;10.740;2022-07-12T15:29:00;35.00;62.70
9403;DHT22;4741;49.834;10.740;2022-07-12T15:31:30;35.10;85.20
9403;DHT22;4741;49.834;10.740;2022-07-12T15:33:58;34.50;63.50
9403;DHT22;4741;49.834;10.740;2022-07-12T15:36:25;34.50;77.00
9403;DHT22;4741;49.834;10.740;2022-07-12T15:38:52;34.70;69.80
9403;DHT22;4741;49.834;10.740;2022-07-12T15:41:19;33.40;57.20
9403;DHT22;4741;49.834;10.740;2022-07-12T15:43:45;33.50;58.40
9403;DHT22;4741;49.834;10.740;2022-07-12T15:46:13;33.10;59.80
9403;DHT22;4741;49.834;10.740;2022-07-12T15:48:40;32.90;59.20
9403;DHT22;4741;49.834;10.740;2022-07-12T15:51:07;33.20;64.40
9403;DHT22;4741;49.834;10.740;2022-07-12T15:53:35;33.70;64.10
9403;DHT22;4741;49.834;10.740;2022-07-12T15:56:03;34.30;63.30
9403;DHT22;4741;49.834;10.740;2022-07-12T15:58:34;32.80;58.00
9403;DHT22;4741;49.834;10.740;2022-07-12T16:01:04;32.50;58.10
9403;DHT22;4741;49.834;10.740;2022-07-12T16:03:31;32.80;58.10
9403;DHT22;4741;49.834;10.740;2022-07-12T16:06:01;32.90;59.00
9403;DHT22;4741;49.834;10.740;2022-07-12T16:08:28;33.30;59.10
9403;DHT22;4741;49.834;10.740;2022-07-12T16:10:58;34.50;57.70
9403;DHT22;4741;49.834;10.740;2022-07-12T16:13:27;34.50;58.40
9403;DHT22;4741;49.834;10.740;2022-07-12T16:35:39;33.70;56.40
9403;DHT22;4741;49.834;10.740;2022-07-12T16:42:06;34.40;56.00
